sensor_id;sensor_type;location;lat;lon;timestamp;temperature;humidity
68215;DHT22;55036;52.138;5.236;2023-11-21T00:01:23;8.40;90.00
68215;DHT22;55036;52.138;5.236;2023-11-21T00:03:50;8.30;90.00
68215;DHT22;55036;52.138;5.236;2023-11-21T00:06:17;8.30;90.00
68215;DHT22;55036;52.138;5.236;2023-11-21T00:08:44;8.30;90.10
68215;DHT22;55036;52.138;5.236;2023-11-21T00:11:11;8.30;90.20
68215;DHT22;55036;52.138;5.236;2023-11-21T00:13:38;8.30;90.20
68215;DHT22;55036;52.138;5.236;2023-11-21T00:16:06;8.30;90.20
68215;DHT22;55036;52.138;5.236;2023-11-21T00:18:34;8.30;90.20
68215;DHT22;55036;52.138;5.236;2023-11-21T00:21:00;8.30;90.10
68215;DHT22;55036;52.138;5.236;2023-11-21T00:23:27;8.30;90.20
68215;DHT22;55036;52.138;5.236;2023-11-21T00:25:54;8.20;90.00
68215;DHT22;55036;52.138;5.236;2023-11-21T00:28:21;8.20;90.10
68215;DHT22;55036;52.138;5.236;2023-11-21T00:30:49;8.20;90.20
68215;DHT22;55036;52.138;5.236;2023-11-21T00:33:15;8.10;90.10
68215;DHT22;55036;52.138;5.236;2023-11-21T00:35:42;8.10;90.20
68215;DHT22;55036;52.138;5.236;2023-11-21T00:38:09;8.10;90.20
68215;DHT22;55036;52.138;5.236;2023-11-21T00:40:36;8.10;90.20
68215;DHT22;55036;52.138;5.236;2023-11-21T01:20:37;8.00;90.50
68215;DHT22;55036;52.138;5.236;2023-11-21T01:23:04;8.00;90.40
68215;DHT22;55036;52.138;5.236;2023-11-21T01:25:31;8.00;90.40
68215;DHT22;55036;52.138;5.236;2023-11-21T01:27:58;8.00;90.40
68215;DHT22;55036;52.138;5.236;2023-11-21T01:30:24;8.10;90.50
68215;DHT22;55036;52.138;5.236;2023-11-21T01:32:52;8.10;90.80
68215;DHT22;55036;52.138;5.236;2023-11-21T01:35:18;8.10;90.40
68215;DHT22;55036;52.138;5.236;2023-11-21T01:37:45;8.10;90.30
68215;DHT22;55036;52.138;5.236;2023-11-21T01:40:14;8.10;90.30
68215;DHT22;55036;52.138;5.236;2023-11-21T01:42:42;8.10;90.40
68215;DHT22;55036;52.138;5.236;2023-11-21T01:45:14;8.10;90.50
68215;DHT22;55036;52.138;5.236;2023-11-21T01:47:41;8.20;90.40
68215;DHT22;55036;52.138;5.236;2023-11-21T01:50:16;8.20;90.40
68215;DHT22;55036;52.138;5.236;2023-11-21T01:52:45;8.20;90.40
68215;DHT22;55036;52.138;5.236;2023-11-21T01:55:15;8.20;90.40
68215;DHT22;55036;52.138;5.236;2023-11-21T01:57:55;8.20;90.50
68215;DHT22;55036;52.138;5.236;2023-11-21T02:00:22;8.30;90.60
68215;DHT22;55036;52.138;5.236;2023-11-21T02:02:50;8.30;90.60
68215;DHT22;55036;52.138;5.236;2023-11-21T02:05:18;8.40;90.70
68215;DHT22;55036;52.138;5.236;2023-11-21T02:07:46;8.40;90.60
68215;DHT22;55036;52.138;5.236;2023-11-21T02:10:16;8.40;91.10
68215;DHT22;55036;52.138;5.236;2023-11-21T02:12:44;8.40;90.70
68215;DHT22;55036;52.138;5.236;2023-11-21T02:15:13;8.40;90.70
68215;DHT22;55036;52.138;5.236;2023-11-21T02:17:53;8.50;90.80
68215;DHT22;55036;52.138;5.236;2023-11-21T02:20:21;8.50;90.80
68215;DHT22;55036;52.138;5.236;2023-11-21T02:22:50;8.50;90.70
68215;DHT22;55036;52.138;5.236;2023-11-21T02:25:22;8.50;90.70
68215;DHT22;55036;52.138;5.236;2023-11-21T02:27:49;8.60;90.80
68215;DHT22;55036;52.138;5.236;2023-11-21T02:30:16;8.60;90.80
68215;DHT22;55036;52.138;5.236;2023-11-21T02:32:42;8.60;90.80
68215;DHT22;55036;52.138;5.236;2023-11-21T02:35:15;8.50;91.00
68215;DHT22;55036;52.138;5.236;2023-11-21T02:37:49;8.70;91.00
68215;DHT22;55036;52.138;5.236;2023-11-21T02:40:16;8.70;91.00
68215;DHT22;55036;52.138;5.236;2023-11-21T02:42:47;8.70;91.00
68215;DHT22;55036;52.138;5.236;2023-11-21T02:45:14;8.80;91.50
68215;DHT22;55036;52.138;5.236;2023-11-21T02:47:44;8.80;91.10
68215;DHT22;55036;52.138;5.236;2023-11-21T02:50:11;8.80;91.00
68215;DHT22;55036;52.138;5.236;2023-11-21T02:52:39;8.80;91.00
68215;DHT22;55036;52.138;5.236;2023-11-21T02:55:08;8.80;91.20
68215;DHT22;55036;52.138;5.236;2023-11-21T02:57:35;8.90;91.30
68215;DHT22;55036;52.138;5.236;2023-11-21T03:00:02;8.90;91.40
68215;DHT22;55036;52.138;5.236;2023-11-21T03:02:29;8.90;91.40
68215;DHT22;55036;52.138;5.236;2023-11-21T03:04:56;8.90;91.40
68215;DHT22;55036;52.138;5.236;2023-11-21T03:07:23;9.00;91.30
68215;DHT22;55036;52.138;5.236;2023-11-21T03:09:50;9.00;91.40
68215;DHT22;55036;52.138;5.236;2023-11-21T03:12:17;9.00;91.40
68215;DHT22;55036;52.138;5.236;2023-11-21T03:14:43;9.00;91.40
68215;DHT22;55036;52.138;5.236;2023-11-21T03:17:10;9.00;91.40
68215;DHT22;55036;52.138;5.236;2023-11-21T03:19:38;9.00;91.40
68215;DHT22;55036;52.138;5.236;2023-11-21T03:22:04;9.00;91.40
68215;DHT22;55036;52.138;5.236;2023-11-21T03:24:31;9.00;91.40
68215;DHT22;55036;52.138;5.236;2023-11-21T03:26:58;9.10;91.40
68215;DHT22;55036;52.138;5.236;2023-11-21T03:29:25;9.10;91.50
68215;DHT22;55036;52.138;5.236;2023-11-21T03:31:52;9.10;91.50
68215;DHT22;55036;52.138;5.236;2023-11-21T03:34:26;9.10;91.40
68215;DHT22;55036;52.138;5.236;2023-11-21T03:36:54;9.00;91.50
68215;DHT22;55036;52.138;5.236;2023-11-21T03:39:21;9.10;91.60
68215;DHT22;55036;52.138;5.236;2023-11-21T03:41:48;9.10;91.60
68215;DHT22;55036;52.138;5.236;2023-11-21T03:44:15;9.10;91.70
68215;DHT22;55036;52.138;5.236;2023-11-21T03:46:42;9.10;91.70
68215;DHT22;55036;52.138;5.236;2023-11-21T03:49:08;9.20;91.70
68215;DHT22;55036;52.138;5.236;2023-11-21T03:51:35;9.20;91.60
68215;DHT22;55036;52.138;5.236;2023-11-21T03:54:02;9.20;91.70
68215;DHT22;55036;52.138;5.236;2023-11-21T03:56:29;9.20;91.60
68215;DHT22;55036;52.138;5.236;2023-11-21T03:58:56;9.20;91.60
68215;DHT22;55036;52.138;5.236;2023-11-21T04:01:23;9.20;91.60
68215;DHT22;55036;52.138;5.236;2023-11-21T04:03:51;9.20;91.60
68215;DHT22;55036;52.138;5.236;2023-11-21T04:06:18;9.30;91.70
68215;DHT22;55036;52.138;5.236;2023-11-21T04:08:45;9.30;91.70
68215;DHT22;55036;52.138;5.236;2023-11-21T04:11:12;9.30;91.70
68215;DHT22;55036;52.138;5.236;2023-11-21T04:13:39;9.30;91.70
68215;DHT22;55036;52.138;5.236;2023-11-21T04:16:07;9.30;91.60
68215;DHT22;55036;52.138;5.236;2023-11-21T04:18:38;9.30;91.60
68215;DHT22;55036;52.138;5.236;2023-11-21T04:21:05;9.40;91.70
68215;DHT22;55036;52.138;5.236;2023-11-21T04:23:32;9.30;91.80
68215;DHT22;55036;52.138;5.236;2023-11-21T04:26:00;9.40;91.80
68215;DHT22;55036;52.138;5.236;2023-11-21T04:28:28;9.40;91.80
68215;DHT22;55036;52.138;5.236;2023-11-21T04:30:55;9.30;91.80
68215;DHT22;55036;52.138;5.236;2023-11-21T04:33:22;9.30;91.80
68215;DHT22;55036;52.138;5.236;2023-11-21T04:35:49;9.40;91.90
68215;DHT22;55036;52.138;5.236;2023-11-21T04:38:15;9.40;91.90
68215;DHT22;55036;52.138;5.236;2023-11-21T04:40:42;9.50;92.00
68215;DHT22;55036;52.138;5.236;2023-11-21T04:43:09;9.50;92.10
68215;DHT22;55036;52.138;5.236;2023-11-21T04:45:36;9.50;92.10
68215;DHT22;55036;52.138;5.236;2023-11-21T04:48:02;9.50;92.10
68215;DHT22;55036;52.138;5.236;2023-11-21T04:50:30;9.50;92.00
68215;DHT22;55036;52.138;5.236;2023-11-21T04:52:57;9.50;92.00
68215;DHT22;55036;52.138;5.236;2023-11-21T04:55:23;9.60;92.00
68215;DHT22;55036;52.138;5.236;2023-11-21T04:57:50;9.60;92.10
68215;DHT22;55036;52.138;5.236;2023-11-21T05:00:17;9.60;92.00
68215;DHT22;55036;52.138;5.236;2023-11-21T05:02:44;9.60;92.00
68215;DHT22;55036;52.138;5.236;2023-11-21T05:05:11;9.60;92.10
68215;DHT22;55036;52.138;5.236;2023-11-21T05:07:41;9.60;92.10
68215;DHT22;55036;52.138;5.236;2023-11-21T05:10:09;9.70;92.20
68215;DHT22;55036;52.138;5.236;2023-11-21T05:12:42;9.70;92.10
68215;DHT22;55036;52.138;5.236;2023-11-21T05:15:09;9.70;92.20
68215;DHT22;55036;52.138;5.236;2023-11-21T05:17:37;9.70;92.10
68215;DHT22;55036;52.138;5.236;2023-11-21T05:20:06;9.70;92.10
68215;DHT22;55036;52.138;5.236;2023-11-21T05:22:35;9.70;92.10
68215;DHT22;55036;52.138;5.236;2023-11-21T05:25:02;9.70;92.20
68215;DHT22;55036;52.138;5.236;2023-11-21T05:27:30;9.70;92.10
68215;DHT22;55036;52.138;5.236;2023-11-21T05:29:57;9.70;92.20
68215;DHT22;55036;52.138;5.236;2023-11-21T05:32:25;9.70;92.20
68215;DHT22;55036;52.138;5.236;2023-11-21T05:34:52;9.70;92.30
68215;DHT22;55036;52.138;5.236;2023-11-21T05:37:19;9.80;92.20
68215;DHT22;55036;52.138;5.236;2023-11-21T05:39:45;9.70;92.10
68215;DHT22;55036;52.138;5.236;2023-11-21T05:42:13;9.60;92.40
68215;DHT22;55036;52.138;5.236;2023-11-21T05:44:42;9.60;92.40
68215;DHT22;55036;52.138;5.236;2023-11-21T05:47:10;9.70;92.40
68215;DHT22;55036;52.138;5.236;2023-11-21T05:49:36;9.80;92.50
68215;DHT22;55036;52.138;5.236;2023-11-21T05:52:04;9.80;92.40
68215;DHT22;55036;52.138;5.236;2023-11-21T05:54:32;9.80;92.40
68215;DHT22;55036;52.138;5.236;2023-11-21T05:56:59;9.80;92.40
68215;DHT22;55036;52.138;5.236;2023-11-21T05:59:26;9.80;92.50
68215;DHT22;55036;52.138;5.236;2023-11-21T06:01:53;9.80;92.50
68215;DHT22;55036;52.138;5.236;2023-11-21T06:04:20;9.80;92.50
68215;DHT22;55036;52.138;5.236;2023-11-21T06:06:51;9.90;92.60
68215;DHT22;55036;52.138;5.236;2023-11-21T06:09:19;9.90;92.60
68215;DHT22;55036;52.138;5.236;2023-11-21T06:11:47;9.90;92.50
68215;DHT22;55036;52.138;5.236;2023-11-21T06:14:13;9.90;92.50
68215;DHT22;55036;52.138;5.236;2023-11-21T06:16:41;10.00;92.60
68215;DHT22;55036;52.138;5.236;2023-11-21T06:19:08;10.00;92.60
68215;DHT22;55036;52.138;5.236;2023-11-21T06:21:35;10.00;92.60
68215;DHT22;55036;52.138;5.236;2023-11-21T06:24:02;10.00;92.60
68215;DHT22;55036;52.138;5.236;2023-11-21T06:26:28;10.10;92.70
68215;DHT22;55036;52.138;5.236;2023-11-21T06:28:55;10.00;92.60
68215;DHT22;55036;52.138;5.236;2023-11-21T06:31:23;10.00;92.60
68215;DHT22;55036;52.138;5.236;2023-11-21T06:33:50;10.10;92.70
68215;DHT22;55036;52.138;5.236;2023-11-21T06:36:18;10.10;92.70
68215;DHT22;55036;52.138;5.236;2023-11-21T06:38:45;10.00;92.60
68215;DHT22;55036;52.138;5.236;2023-11-21T06:41:12;10.00;92.70
68215;DHT22;55036;52.138;5.236;2023-11-21T06:43:42;10.00;92.60
68215;DHT22;55036;52.138;5.236;2023-11-21T06:46:13;10.10;92.70
68215;DHT22;55036;52.138;5.236;2023-11-21T06:48:42;10.10;92.80
68215;DHT22;55036;52.138;5.236;2023-11-21T06:51:09;10.10;92.80
68215;DHT22;55036;52.138;5.236;2023-11-21T06:53:37;10.20;92.90
68215;DHT22;55036;52.138;5.236;2023-11-21T06:56:14;10.20;92.90
68215;DHT22;55036;52.138;5.236;2023-11-21T06:58:41;10.20;92.90
68215;DHT22;55036;52.138;5.236;2023-11-21T07:01:08;10.30;93.00
68215;DHT22;55036;52.138;5.236;2023-11-21T07:03:35;10.30;93.20
68215;DHT22;55036;52.138;5.236;2023-11-21T07:06:04;10.30;93.10
68215;DHT22;55036;52.138;5.236;2023-11-21T07:08:31;10.40;93.10
68215;DHT22;55036;52.138;5.236;2023-11-21T07:10:58;10.40;93.20
68215;DHT22;55036;52.138;5.236;2023-11-21T07:13:24;10.40;93.40
68215;DHT22;55036;52.138;5.236;2023-11-21T07:15:52;10.50;93.50
68215;DHT22;55036;52.138;5.236;2023-11-21T07:18:19;10.60;93.40
68215;DHT22;55036;52.138;5.236;2023-11-21T07:20:46;10.60;93.40
68215;DHT22;55036;52.138;5.236;2023-11-21T07:23:13;10.60;93.40
68215;DHT22;55036;52.138;5.236;2023-11-21T07:25:39;10.70;93.40
68215;DHT22;55036;52.138;5.236;2023-11-21T07:28:08;10.70;93.60
68215;DHT22;55036;52.138;5.236;2023-11-21T07:30:35;10.70;93.50
68215;DHT22;55036;52.138;5.236;2023-11-21T07:33:03;10.70;93.50
68215;DHT22;55036;52.138;5.236;2023-11-21T07:35:30;10.80;93.50
68215;DHT22;55036;52.138;5.236;2023-11-21T07:37:56;10.80;93.50
68215;DHT22;55036;52.138;5.236;2023-11-21T07:40:23;10.80;93.50
68215;DHT22;55036;52.138;5.236;2023-11-21T07:42:50;10.90;93.50
68215;DHT22;55036;52.138;5.236;2023-11-21T07:45:17;10.90;93.50
68215;DHT22;55036;52.138;5.236;2023-11-21T07:47:44;11.00;93.50
68215;DHT22;55036;52.138;5.236;2023-11-21T07:50:11;11.00;93.60
68215;DHT22;55036;52.138;5.236;2023-11-21T07:52:38;11.00;93.50
68215;DHT22;55036;52.138;5.236;2023-11-21T07:55:05;11.00;93.50
68215;DHT22;55036;52.138;5.236;2023-11-21T07:57:34;11.00;93.60
68215;DHT22;55036;52.138;5.236;2023-11-21T08:00:00;11.10;93.60
68215;DHT22;55036;52.138;5.236;2023-11-21T08:02:27;11.10;93.60
68215;DHT22;55036;52.138;5.236;2023-11-21T08:04:54;11.10;93.60
68215;DHT22;55036;52.138;5.236;2023-11-21T08:07:23;11.10;93.80
68215;DHT22;55036;52.138;5.236;2023-11-21T08:09:50;11.20;93.80
68215;DHT22;55036;52.138;5.236;2023-11-21T08:12:17;11.20;93.90
68215;DHT22;55036;52.138;5.236;2023-11-21T08:14:44;11.20;94.30
68215;DHT22;55036;52.138;5.236;2023-11-21T08:17:11;11.30;94.40
68215;DHT22;55036;52.138;5.236;2023-11-21T08:19:40;11.30;94.40
68215;DHT22;55036;52.138;5.236;2023-11-21T08:22:07;11.30;94.50
68215;DHT22;55036;52.138;5.236;2023-11-21T08:24:34;11.30;94.50
68215;DHT22;55036;52.138;5.236;2023-11-21T08:27:01;11.30;94.80
68215;DHT22;55036;52.138;5.236;2023-11-21T08:29:27;11.40;94.80
68215;DHT22;55036;52.138;5.236;2023-11-21T08:31:54;11.40;94.90
68215;DHT22;55036;52.138;5.236;2023-11-21T08:34:21;11.40;94.90
68215;DHT22;55036;52.138;5.236;2023-11-21T08:36:48;11.50;95.00
68215;DHT22;55036;52.138;5.236;2023-11-21T08:39:15;11.40;95.10
68215;DHT22;55036;52.138;5.236;2023-11-21T08:41:43;11.50;95.00
68215;DHT22;55036;52.138;5.236;2023-11-21T08:44:09;11.50;95.10
68215;DHT22;55036;52.138;5.236;2023-11-21T08:46:37;11.50;95.20
68215;DHT22;55036;52.138;5.236;2023-11-21T08:49:05;11.50;95.40
68215;DHT22;55036;52.138;5.236;2023-11-21T08:51:32;11.60;95.50
68215;DHT22;55036;52.138;5.236;2023-11-21T08:53:59;11.70;95.40
68215;DHT22;55036;52.138;5.236;2023-11-21T08:56:28;11.80;95.70
68215;DHT22;55036;52.138;5.236;2023-11-21T08:58:55;11.80;95.80
68215;DHT22;55036;52.138;5.236;2023-11-21T09:01:22;11.90;95.80
68215;DHT22;55036;52.138;5.236;2023-11-21T09:03:50;12.00;95.40
68215;DHT22;55036;52.138;5.236;2023-11-21T09:06:16;12.00;95.40
68215;DHT22;55036;52.138;5.236;2023-11-21T09:08:43;12.00;95.50
68215;DHT22;55036;52.138;5.236;2023-11-21T09:11:10;12.00;95.70
68215;DHT22;55036;52.138;5.236;2023-11-21T09:13:37;12.00;95.40
68215;DHT22;55036;52.138;5.236;2023-11-21T09:16:04;12.00;95.40
68215;DHT22;55036;52.138;5.236;2023-11-21T09:18:32;11.90;95.70
68215;DHT22;55036;52.138;5.236;2023-11-21T09:20:58;11.90;95.80
68215;DHT22;55036;52.138;5.236;2023-11-21T09:23:25;11.90;95.80
68215;DHT22;55036;52.138;5.236;2023-11-21T09:25:52;12.00;95.70
68215;DHT22;55036;52.138;5.236;2023-11-21T09:28:23;12.10;95.60
68215;DHT22;55036;52.138;5.236;2023-11-21T09:30:50;12.20;95.40
68215;DHT22;55036;52.138;5.236;2023-11-21T09:33:16;12.20;95.40
68215;DHT22;55036;52.138;5.236;2023-11-21T09:35:43;12.20;95.20
68215;DHT22;55036;52.138;5.236;2023-11-21T09:38:10;12.20;94.90
68215;DHT22;55036;52.138;5.236;2023-11-21T09:40:38;12.20;94.90
68215;DHT22;55036;52.138;5.236;2023-11-21T09:43:17;12.20;94.80
68215;DHT22;55036;52.138;5.236;2023-11-21T09:45:46;12.20;94.70
68215;DHT22;55036;52.138;5.236;2023-11-21T09:48:14;12.10;95.00
68215;DHT22;55036;52.138;5.236;2023-11-21T09:50:43;12.10;95.00
68215;DHT22;55036;52.138;5.236;2023-11-21T09:53:20;12.10;95.10
68215;DHT22;55036;52.138;5.236;2023-11-21T09:55:53;12.10;94.80
68215;DHT22;55036;52.138;5.236;2023-11-21T09:58:20;12.10;94.70
68215;DHT22;55036;52.138;5.236;2023-11-21T10:00:52;12.00;94.90
68215;DHT22;55036;52.138;5.236;2023-11-21T10:03:19;12.00;94.60
68215;DHT22;55036;52.138;5.236;2023-11-21T10:05:48;12.00;94.80
68215;DHT22;55036;52.138;5.236;2023-11-21T10:08:17;11.90;95.00
68215;DHT22;55036;52.138;5.236;2023-11-21T10:10:49;11.80;94.90
68215;DHT22;55036;52.138;5.236;2023-11-21T10:13:18;11.80;95.30
68215;DHT22;55036;52.138;5.236;2023-11-21T10:15:51;11.90;95.40
68215;DHT22;55036;52.138;5.236;2023-11-21T10:18:18;11.90;95.10
68215;DHT22;55036;52.138;5.236;2023-11-21T10:20:45;12.00;95.00
68215;DHT22;55036;52.138;5.236;2023-11-21T10:23:20;12.10;94.80
68215;DHT22;55036;52.138;5.236;2023-11-21T10:25:48;12.00;94.70
68215;DHT22;55036;52.138;5.236;2023-11-21T10:28:16;12.00;95.00
68215;DHT22;55036;52.138;5.236;2023-11-21T10:30:42;12.00;94.80
68215;DHT22;55036;52.138;5.236;2023-11-21T10:33:10;12.10;94.70
68215;DHT22;55036;52.138;5.236;2023-11-21T10:35:44;12.10;94.60
68215;DHT22;55036;52.138;5.236;2023-11-21T10:38:17;12.10;94.60
68215;DHT22;55036;52.138;5.236;2023-11-21T10:40:45;12.00;94.30
68215;DHT22;55036;52.138;5.236;2023-11-21T10:43:13;12.10;94.40
68215;DHT22;55036;52.138;5.236;2023-11-21T10:45:42;12.00;94.30
68215;DHT22;55036;52.138;5.236;2023-11-21T10:48:12;12.00;94.40
68215;DHT22;55036;52.138;5.236;2023-11-21T10:50:45;12.00;94.30
68215;DHT22;55036;52.138;5.236;2023-11-21T10:53:12;12.00;94.10
68215;DHT22;55036;52.138;5.236;2023-11-21T10:55:40;12.00;94.20
68215;DHT22;55036;52.138;5.236;2023-11-21T10:58:07;12.00;93.80
68215;DHT22;55036;52.138;5.236;2023-11-21T11:00:34;11.90;94.00
68215;DHT22;55036;52.138;5.236;2023-11-21T11:03:01;11.80;94.00
68215;DHT22;55036;52.138;5.236;2023-11-21T11:05:29;11.80;94.30
68215;DHT22;55036;52.138;5.236;2023-11-21T11:08:06;11.80;94.50
68215;DHT22;55036;52.138;5.236;2023-11-21T11:10:34;11.80;94.40
68215;DHT22;55036;52.138;5.236;2023-11-21T11:13:02;11.80;94.20
68215;DHT22;55036;52.138;5.236;2023-11-21T11:15:28;11.80;94.40
68215;DHT22;55036;52.138;5.236;2023-11-21T11:17:55;11.70;94.10
68215;DHT22;55036;52.138;5.236;2023-11-21T11:20:34;11.70;94.60
68215;DHT22;55036;52.138;5.236;2023-11-21T11:28:21;11.70;94.70
68215;DHT22;55036;52.138;5.236;2023-11-21T11:31:18;11.80;94.10
68215;DHT22;55036;52.138;5.236;2023-11-21T11:33:57;11.70;94.20
68215;DHT22;55036;52.138;5.236;2023-11-21T11:36:29;11.60;94.30
68215;DHT22;55036;52.138;5.236;2023-11-21T11:38:57;11.50;94.50
68215;DHT22;55036;52.138;5.236;2023-11-21T11:41:27;11.60;94.60
68215;DHT22;55036;52.138;5.236;2023-11-21T11:43:54;11.50;94.90
68215;DHT22;55036;52.138;5.236;2023-11-21T11:46:42;11.60;94.60
68215;DHT22;55036;52.138;5.236;2023-11-21T11:49:32;11.50;94.70
68215;DHT22;55036;52.138;5.236;2023-11-21T11:52:32;11.60;94.90
68215;DHT22;55036;52.138;5.236;2023-11-21T11:55:00;11.60;94.90
68215;DHT22;55036;52.138;5.236;2023-11-21T11:57:33;11.60;95.00
68215;DHT22;55036;52.138;5.236;2023-11-21T12:00:16;11.70;95.00
68215;DHT22;55036;52.138;5.236;2023-11-21T12:02:45;11.70;95.00
68215;DHT22;55036;52.138;5.236;2023-11-21T12:05:15;11.80;94.40
68215;DHT22;55036;52.138;5.236;2023-11-21T12:07:52;11.70;94.50
68215;DHT22;55036;52.138;5.236;2023-11-21T12:10:28;11.60;94.90
68215;DHT22;55036;52.138;5.236;2023-11-21T12:12:57;11.60;94.90
68215;DHT22;55036;52.138;5.236;2023-11-21T12:15:25;11.60;94.70
68215;DHT22;55036;52.138;5.236;2023-11-21T12:17:52;11.60;95.10
68215;DHT22;55036;52.138;5.236;2023-11-21T12:20:20;11.50;95.30
68215;DHT22;55036;52.138;5.236;2023-11-21T12:25:19;11.60;95.10
68215;DHT22;55036;52.138;5.236;2023-11-21T12:27:47;11.60;94.80
68215;DHT22;55036;52.138;5.236;2023-11-21T12:30:18;11.60;94.50
68215;DHT22;55036;52.138;5.236;2023-11-21T12:32:49;11.60;94.50
68215;DHT22;55036;52.138;5.236;2023-11-21T12:35:20;11.60;94.30
68215;DHT22;55036;52.138;5.236;2023-11-21T12:37:48;11.50;94.50
68215;DHT22;55036;52.138;5.236;2023-11-21T12:40:16;11.60;93.80
68215;DHT22;55036;52.138;5.236;2023-11-21T12:42:52;11.60;94.10
68215;DHT22;55036;52.138;5.236;2023-11-21T12:45:21;11.60;94.30
68215;DHT22;55036;52.138;5.236;2023-11-21T12:47:59;11.60;94.50
68215;DHT22;55036;52.138;5.236;2023-11-21T12:50:28;11.60;94.30
68215;DHT22;55036;52.138;5.236;2023-11-21T12:52:59;11.70;94.20
68215;DHT22;55036;52.138;5.236;2023-11-21T12:55:33;11.70;94.10
68215;DHT22;55036;52.138;5.236;2023-11-21T12:58:02;11.70;93.80
68215;DHT22;55036;52.138;5.236;2023-11-21T13:00:40;11.70;94.20
68215;DHT22;55036;52.138;5.236;2023-11-21T13:03:12;11.80;94.40
68215;DHT22;55036;52.138;5.236;2023-11-21T13:05:48;11.90;93.50
68215;DHT22;55036;52.138;5.236;2023-11-21T13:08:20;11.90;93.80
68215;DHT22;55036;52.138;5.236;2023-11-21T13:10:54;11.90;93.70
68215;DHT22;55036;52.138;5.236;2023-11-21T13:13:24;11.90;93.40
68215;DHT22;55036;52.138;5.236;2023-11-21T13:15:56;11.90;93.50
68215;DHT22;55036;52.138;5.236;2023-11-21T13:18:24;11.80;93.60
68215;DHT22;55036;52.138;5.236;2023-11-21T13:20:56;11.80;93.60
68215;DHT22;55036;52.138;5.236;2023-11-21T13:23:25;11.80;93.70
68215;DHT22;55036;52.138;5.236;2023-11-21T13:25:53;11.80;93.70
68215;DHT22;55036;52.138;5.236;2023-11-21T13:28:31;11.90;93.50
68215;DHT22;55036;52.138;5.236;2023-11-21T13:31:01;11.80;93.40
68215;DHT22;55036;52.138;5.236;2023-11-21T13:33:48;11.80;93.40
68215;DHT22;55036;52.138;5.236;2023-11-21T13:36:25;11.70;93.40
68215;DHT22;55036;52.138;5.236;2023-11-21T13:38:53;11.70;93.40
68215;DHT22;55036;52.138;5.236;2023-11-21T13:41:20;11.70;93.20
68215;DHT22;55036;52.138;5.236;2023-11-21T13:43:55;11.60;93.60
68215;DHT22;55036;52.138;5.236;2023-11-21T13:46:30;11.60;93.60
68215;DHT22;55036;52.138;5.236;2023-11-21T13:49:03;11.60;93.50
68215;DHT22;55036;52.138;5.236;2023-11-21T13:51:36;11.60;93.50
68215;DHT22;55036;52.138;5.236;2023-11-21T13:54:11;11.60;93.40
68215;DHT22;55036;52.138;5.236;2023-11-21T13:56:38;11.60;93.60
68215;DHT22;55036;52.138;5.236;2023-11-21T13:59:07;11.50;93.80
68215;DHT22;55036;52.138;5.236;2023-11-21T14:01:47;11.50;93.90
68215;DHT22;55036;52.138;5.236;2023-11-21T14:04:22;11.50;93.80
68215;DHT22;55036;52.138;5.236;2023-11-21T14:07:13;11.50;93.50
68215;DHT22;55036;52.138;5.236;2023-11-21T14:09:58;11.40;93.60
68215;DHT22;55036;52.138;5.236;2023-11-21T14:12:25;11.30;93.90
68215;DHT22;55036;52.138;5.236;2023-11-21T14:14:51;11.20;94.30
68215;DHT22;55036;52.138;5.236;2023-11-21T14:17:18;11.20;93.90
68215;DHT22;55036;52.138;5.236;2023-11-21T14:19:45;11.20;93.50
68215;DHT22;55036;52.138;5.236;2023-11-21T14:22:12;11.20;93.80
68215;DHT22;55036;52.138;5.236;2023-11-21T14:24:39;11.10;93.70
68215;DHT22;55036;52.138;5.236;2023-11-21T14:27:12;11.10;93.80
68215;DHT22;55036;52.138;5.236;2023-11-21T14:29:39;11.10;93.90
68215;DHT22;55036;52.138;5.236;2023-11-21T14:32:10;11.00;94.10
68215;DHT22;55036;52.138;5.236;2023-11-21T14:34:37;11.10;93.90
68215;DHT22;55036;52.138;5.236;2023-11-21T14:37:04;11.10;93.80
68215;DHT22;55036;52.138;5.236;2023-11-21T14:39:31;11.10;93.90
68215;DHT22;55036;52.138;5.236;2023-11-21T14:42:01;11.10;93.80
68215;DHT22;55036;52.138;5.236;2023-11-21T14:44:29;11.00;93.90
68215;DHT22;55036;52.138;5.236;2023-11-21T14:47:02;11.00;93.50
68215;DHT22;55036;52.138;5.236;2023-11-21T14:49:33;10.90;93.90
68215;DHT22;55036;52.138;5.236;2023-11-21T14:52:16;10.90;93.50
68215;DHT22;55036;52.138;5.236;2023-11-21T14:55:09;10.90;93.40
68215;DHT22;55036;52.138;5.236;2023-11-21T14:57:58;10.90;93.20
68215;DHT22;55036;52.138;5.236;2023-11-21T15:00:29;10.90;93.40
68215;DHT22;55036;52.138;5.236;2023-11-21T15:02:58;10.90;93.50
68215;DHT22;55036;52.138;5.236;2023-11-21T15:05:26;10.90;93.30
68215;DHT22;55036;52.138;5.236;2023-11-21T15:07:54;10.90;92.80
68215;DHT22;55036;52.138;5.236;2023-11-21T15:10:24;10.80;92.90
68215;DHT22;55036;52.138;5.236;2023-11-21T15:13:13;10.70;93.20
68215;DHT22;55036;52.138;5.236;2023-11-21T15:15:41;10.70;93.00
68215;DHT22;55036;52.138;5.236;2023-11-21T15:18:09;10.80;92.90
68215;DHT22;55036;52.138;5.236;2023-11-21T15:20:42;10.80;93.00
68215;DHT22;55036;52.138;5.236;2023-11-21T15:23:10;10.70;92.90
68215;DHT22;55036;52.138;5.236;2023-11-21T15:25:36;10.70;93.10
68215;DHT22;55036;52.138;5.236;2023-11-21T15:28:03;10.80;92.40
68215;DHT22;55036;52.138;5.236;2023-11-21T15:30:31;10.70;92.80
68215;DHT22;55036;52.138;5.236;2023-11-21T15:32:59;10.70;92.40
68215;DHT22;55036;52.138;5.236;2023-11-21T15:35:26;10.60;92.60
68215;DHT22;55036;52.138;5.236;2023-11-21T15:37:57;10.60;91.90
68215;DHT22;55036;52.138;5.236;2023-11-21T15:40:25;10.50;91.90
68215;DHT22;55036;52.138;5.236;2023-11-21T15:42:52;10.50;90.90
68215;DHT22;55036;52.138;5.236;2023-11-21T15:45:18;10.20;91.90
68215;DHT22;55036;52.138;5.236;2023-11-21T15:47:48;10.10;92.00
68215;DHT22;55036;52.138;5.236;2023-11-21T15:50:14;10.10;91.90
68215;DHT22;55036;52.138;5.236;2023-11-21T15:52:42;10.10;91.90
68215;DHT22;55036;52.138;5.236;2023-11-21T15:55:24;10.20;91.60
68215;DHT22;55036;52.138;5.236;2023-11-21T15:57:51;10.00;91.70
68215;DHT22;55036;52.138;5.236;2023-11-21T16:00:18;10.00;91.60
68215;DHT22;55036;52.138;5.236;2023-11-21T16:02:47;10.00;91.90
68215;DHT22;55036;52.138;5.236;2023-11-21T16:05:14;10.00;92.00
68215;DHT22;55036;52.138;5.236;2023-11-21T16:07:43;10.00;92.10
68215;DHT22;55036;52.138;5.236;2023-11-21T16:10:10;10.00;91.30
68215;DHT22;55036;52.138;5.236;2023-11-21T16:12:43;10.10;90.50
68215;DHT22;55036;52.138;5.236;2023-11-21T16:15:10;10.10;90.70
68215;DHT22;55036;52.138;5.236;2023-11-21T16:17:38;9.90;90.80
68215;DHT22;55036;52.138;5.236;2023-11-21T16:20:06;9.90;90.40
68215;DHT22;55036;52.138;5.236;2023-11-21T16:22:37;9.80;90.70
68215;DHT22;55036;52.138;5.236;2023-11-21T16:25:05;9.80;90.90
68215;DHT22;55036;52.138;5.236;2023-11-21T16:27:38;9.80;90.40
68215;DHT22;55036;52.138;5.236;2023-11-21T16:30:05;9.80;90.80
68215;DHT22;55036;52.138;5.236;2023-11-21T16:32:33;9.80;91.00
68215;DHT22;55036;52.138;5.236;2023-11-21T16:35:02;9.80;90.90